MUCF

Jaime González Airport

Airport
ICAO code
MUCF
IATA Code
CFG
Summary
ICAO Region
CARSAM
ICAO Territory
Location

Cienfuegos, Cienfuegos

Serving
Cienfuegos
Elevation
102 ft
Coordinates
22° 8' 60" N , 80° 24' 50" W
KCC
Airport BS
Bird Strike
Metar
Observation
MUCF 080759Z AUTO 06007KT 19/18 Q1020
Station
Cienfuegos, Las Villas
Date/Time
2022-12-08 07:59:00
Wind direction
60°
Wind speed
07 kts
Lowest cloud amount
n/a
Temperature
19°C
Dew point
18°C
Humidity
93%
QNH
1020 hPa
Weather condition
n/a

International airport serving Cienfuegos, Cuba and the nearby holiday resorts.

Climatology

Tropical Savanna climate (Köppen climate classification Aw)

Runways

Designator Length Width Surface Rops
2/20 2400 45 ASP No/No

Airport map

Aerial View

SKYbrary Partners:

Safety knowledge contributed by: